createdAt,value
2022-11-16T00:01:34.255Z,13.63
2022-11-16T00:04:02.806Z,11.18
2022-11-16T00:06:29.795Z,11.02
2022-11-16T00:09:18.237Z,10.63
2022-11-16T00:11:45.679Z,10.52
2022-11-16T00:14:12.499Z,12.23
2022-11-16T00:16:39.587Z,11.50
2022-11-16T00:19:07.103Z,11.55
2022-11-16T00:21:34.123Z,13.95
2022-11-16T00:24:02.430Z,8.90
2022-11-16T00:26:29.278Z,9.30
2022-11-16T00:28:56.642Z,11.63
2022-11-16T00:31:24.905Z,10.95
2022-11-16T00:33:52.147Z,8.82
2022-11-16T00:36:18.902Z,9.68
2022-11-16T00:38:46.468Z,8.27
2022-11-16T00:41:13.208Z,9.43
2022-11-16T00:43:39.877Z,9.07
2022-11-16T00:46:07.383Z,10.43
2022-11-16T00:48:34.213Z,9.85
2022-11-16T00:51:01.186Z,8.95
2022-11-16T00:53:28.692Z,9.30
2022-11-16T00:55:55.400Z,11.43
2022-11-16T00:58:22.154Z,10.15
2022-11-16T01:00:50.000Z,8.68
2022-11-16T01:03:16.717Z,9.93
2022-11-16T01:05:43.728Z,9.82
2022-11-16T01:08:10.618Z,9.15
2022-11-16T01:10:39.907Z,7.50
2022-11-16T01:13:07.386Z,10.30
2022-11-16T01:15:34.660Z,13.15
2022-11-16T01:18:01.294Z,11.38
2022-11-16T01:20:29.711Z,10.75
2022-11-16T01:22:56.668Z,11.60
2022-11-16T01:25:23.339Z,12.35
2022-11-16T01:27:50.171Z,19.33
2022-11-16T01:30:17.252Z,20.95
2022-11-16T01:32:43.924Z,22.35
2022-11-16T01:35:16.047Z,20.17
2022-11-16T01:37:42.919Z,21.02
2022-11-16T01:40:11.089Z,15.05
2022-11-16T01:42:37.917Z,18.45
2022-11-16T01:45:24.729Z,17.70
2022-11-16T01:50:19.985Z,10.05
2022-11-16T01:52:54.471Z,9.68
2022-11-16T01:55:23.263Z,10.65
2022-11-16T01:57:51.132Z,8.98
2022-11-16T02:00:18.730Z,11.32
2022-11-16T02:02:45.800Z,12.07
2022-11-16T02:05:15.861Z,13.32
2022-11-16T02:08:23.146Z,11.40
2022-11-16T02:11:13.960Z,14.38
2022-11-16T02:13:46.470Z,14.85
2022-11-16T02:16:41.007Z,15.88
2022-11-16T02:19:11.784Z,13.90
2022-11-16T02:22:00.948Z,12.77
2022-11-16T02:24:28.362Z,13.65
2022-11-16T02:27:17.924Z,12.30
2022-11-16T02:29:53.648Z,20.35
2022-11-16T02:32:29.642Z,17.48
2022-11-16T02:35:05.787Z,16.80
2022-11-16T02:37:37.176Z,11.48
2022-11-16T02:40:08.875Z,14.80
2022-11-16T02:42:41.477Z,15.40
2022-11-16T02:45:12.795Z,16.05
2022-11-16T02:47:42.122Z,11.82
2022-11-16T02:50:16.345Z,17.38
2022-11-16T02:52:42.987Z,12.68
2022-11-16T02:55:12.638Z,15.25
2022-11-16T02:57:54.119Z,16.63
2022-11-16T03:00:27.121Z,12.30
2022-11-16T03:03:11.583Z,10.60
2022-11-16T03:06:11.514Z,11.48
2022-11-16T03:08:42.830Z,10.52
2022-11-16T03:11:29.819Z,11.27
2022-11-16T03:14:04.131Z,10.73
2022-11-16T03:16:35.118Z,8.85
2022-11-16T03:19:08.264Z,11.18
2022-11-16T03:21:43.801Z,10.52
2022-11-16T03:24:10.681Z,10.32
2022-11-16T03:27:05.476Z,10.32
2022-11-16T03:29:39.989Z,7.35
2022-11-16T03:32:41.699Z,8.00
2022-11-16T03:35:18.590Z,6.57
2022-11-16T03:37:48.022Z,10.25
2022-11-16T03:40:17.160Z,7.97
2022-11-16T03:42:45.795Z,6.57
2022-11-16T03:45:14.107Z,6.90
2022-11-16T03:47:42.053Z,5.75
2022-11-16T03:50:09.940Z,6.00
2022-11-16T03:52:36.861Z,8.88
2022-11-16T03:55:04.650Z,6.28
2022-11-16T03:57:31.286Z,7.22
2022-11-16T03:59:57.867Z,8.60
2022-11-16T04:02:24.451Z,6.05
2022-11-16T04:05:09.917Z,8.15
2022-11-16T04:07:56.139Z,8.25
2022-11-16T04:10:41.085Z,9.50
2022-11-16T04:13:30.511Z,9.32
2022-11-16T04:16:15.677Z,6.40
2022-11-16T04:19:00.855Z,7.68
2022-11-16T04:22:00.680Z,7.57
2022-11-16T04:24:30.487Z,5.93
2022-11-16T04:27:19.351Z,6.00
2022-11-16T04:29:48.393Z,5.65
2022-11-16T04:32:44.980Z,6.85
2022-11-16T04:35:46.899Z,8.98
2022-11-16T04:38:15.119Z,5.43
2022-11-16T04:40:41.717Z,8.07
2022-11-16T04:43:08.643Z,11.48
2022-11-16T04:45:54.986Z,5.70
2022-11-16T04:48:21.983Z,7.68
2022-11-16T04:50:48.702Z,7.30
2022-11-16T04:53:16.005Z,7.90
2022-11-16T04:55:42.619Z,10.52
2022-11-16T04:58:10.887Z,7.72
2022-11-16T05:00:37.987Z,7.30
2022-11-16T05:03:05.370Z,4.68
2022-11-16T05:05:31.980Z,6.47
2022-11-16T05:07:59.413Z,7.28
2022-11-16T05:10:26.277Z,8.63
2022-11-16T05:12:52.881Z,11.10
2022-11-16T05:15:20.038Z,10.80
2022-11-16T05:17:47.397Z,10.40
2022-11-16T05:20:33.039Z,16.42
2022-11-16T05:22:59.701Z,9.63
2022-11-16T05:25:26.850Z,10.15
2022-11-16T05:27:55.056Z,11.32
2022-11-16T05:30:21.765Z,11.32
2022-11-16T05:32:48.384Z,12.18
2022-11-16T05:35:15.852Z,7.82
2022-11-16T05:37:42.456Z,8.48
2022-11-16T05:40:09.597Z,10.18
2022-11-16T05:42:40.004Z,7.53
2022-11-16T05:45:07.015Z,13.57
2022-11-16T05:47:33.609Z,7.35
2022-11-16T05:50:00.288Z,7.05
2022-11-16T05:52:26.847Z,8.07
2022-11-16T05:54:53.433Z,12.18
2022-11-16T05:57:20.828Z,12.20
2022-11-16T05:59:47.430Z,12.23
2022-11-16T06:02:14.595Z,8.43
2022-11-16T06:04:42.095Z,10.32
2022-11-16T06:07:08.731Z,7.90
2022-11-16T06:09:35.445Z,9.70
2022-11-16T06:12:02.070Z,19.73
2022-11-16T06:14:28.644Z,6.55
2022-11-16T06:16:55.227Z,10.50
2022-11-16T06:19:22.732Z,7.22
2022-11-16T06:21:49.364Z,9.07
2022-11-16T06:24:16.029Z,7.38
2022-11-16T06:26:42.731Z,8.23
2022-11-16T06:29:10.424Z,11.25
2022-11-16T06:31:37.035Z,10.60
2022-11-16T06:34:03.695Z,9.43
2022-11-16T06:36:30.336Z,9.23
2022-11-16T06:39:00.308Z,10.13
2022-11-16T06:41:27.901Z,9.35
2022-11-16T06:43:54.486Z,10.68
2022-11-16T06:46:21.293Z,10.85
2022-11-16T06:48:47.951Z,10.43
2022-11-16T06:51:14.567Z,10.45
2022-11-16T06:53:41.190Z,11.10
2022-11-16T06:56:08.144Z,11.30
2022-11-16T06:58:35.101Z,10.55
2022-11-16T07:01:09.936Z,10.77
2022-11-16T07:03:36.590Z,9.60
2022-11-16T07:06:12.475Z,11.73
2022-11-16T07:08:39.253Z,17.13
2022-11-16T07:11:07.555Z,7.07
2022-11-16T07:13:38.080Z,11.40
2022-11-16T07:16:06.972Z,7.80
2022-11-16T07:18:35.945Z,9.32
2022-11-16T07:21:11.470Z,8.73
2022-11-16T07:23:38.350Z,9.10
2022-11-16T07:26:07.576Z,7.55
2022-11-16T07:28:35.614Z,9.35
2022-11-16T07:31:08.478Z,7.60
2022-11-16T07:33:35.930Z,7.75
2022-11-16T07:36:07.781Z,8.60
2022-11-16T07:38:35.006Z,7.65
2022-11-16T07:41:03.348Z,7.95
2022-11-16T07:43:37.257Z,11.18
2022-11-16T07:46:44.714Z,18.08
2022-11-16T07:48:54.768Z,15.30
2022-11-16T07:51:21.323Z,8.73
2022-11-16T07:53:47.914Z,8.13
2022-11-16T07:56:14.541Z,10.40
2022-11-16T07:58:41.123Z,9.23
2022-11-16T08:01:13.415Z,8.57
2022-11-16T08:03:42.232Z,5.95
2022-11-16T08:06:13.188Z,6.97
2022-11-16T08:08:40.204Z,5.13
2022-11-16T08:11:10.716Z,8.93
2022-11-16T08:13:39.804Z,7.43
2022-11-16T08:16:11.015Z,7.75
2022-11-16T08:18:39.678Z,8.07
2022-11-16T08:21:08.094Z,7.82
2022-11-16T08:23:35.149Z,11.60
2022-11-16T08:26:04.354Z,9.50
2022-11-16T08:28:34.775Z,9.30
2022-11-16T08:31:11.586Z,7.43
2022-11-16T08:33:38.466Z,4.45
2022-11-16T08:36:12.569Z,6.63
2022-11-16T08:38:41.520Z,12.87
2022-11-16T08:41:08.160Z,5.43
2022-11-16T08:43:35.940Z,5.15
2022-11-16T08:46:03.379Z,8.07
2022-11-16T08:48:30.674Z,8.70
2022-11-16T08:51:17.341Z,6.00
2022-11-16T08:53:48.155Z,5.72
2022-11-16T08:56:17.361Z,6.13
2022-11-16T08:58:44.411Z,7.22
2022-11-16T09:01:15.649Z,7.45
2022-11-16T09:03:42.543Z,4.80
2022-11-16T09:06:10.413Z,6.15
2022-11-16T09:08:38.637Z,7.35
2022-11-16T09:11:10.055Z,9.07
2022-11-16T09:13:37.044Z,7.05
2022-11-16T09:16:04.689Z,5.35
2022-11-16T09:18:32.006Z,6.80
2022-11-16T09:20:58.973Z,6.03
2022-11-16T09:23:25.936Z,5.15
2022-11-16T09:25:56.190Z,4.43
2022-11-16T09:28:23.798Z,7.78
2022-11-16T09:30:51.365Z,4.95
2022-11-16T09:33:18.499Z,6.75
2022-11-16T09:35:45.292Z,4.20
2022-11-16T09:38:16.012Z,4.97
2022-11-16T09:40:48.435Z,8.73
2022-11-16T09:43:45.633Z,6.03
2022-11-16T09:46:29.546Z,8.35
2022-11-16T09:49:02.425Z,6.38
2022-11-16T09:51:33.885Z,8.10
2022-11-16T09:54:23.099Z,13.75
2022-11-16T09:56:54.662Z,7.65
2022-11-16T09:59:27.687Z,7.65
2022-11-16T10:01:59.570Z,9.75
2022-11-16T10:04:43.886Z,10.90
2022-11-16T10:07:20.260Z,7.13
2022-11-16T10:09:47.791Z,8.73
2022-11-16T10:12:40.206Z,40.42
2022-11-16T10:15:18.808Z,7.22
2022-11-16T10:18:20.707Z,10.93
2022-11-16T10:21:07.358Z,10.25
2022-11-16T10:23:50.007Z,5.95
2022-11-16T10:26:19.207Z,6.47
2022-11-16T10:29:10.341Z,8.25
2022-11-16T10:31:51.597Z,8.25
2022-11-16T10:34:37.776Z,7.28
2022-11-16T10:37:08.519Z,9.65
2022-11-16T10:39:40.407Z,7.57
2022-11-16T10:42:13.454Z,17.58
2022-11-16T10:44:45.641Z,5.75
2022-11-16T10:47:19.008Z,6.03
2022-11-16T10:49:59.574Z,7.53
2022-11-16T10:52:26.558Z,9.43
2022-11-16T10:54:53.475Z,6.13
2022-11-16T10:57:20.616Z,6.63
2022-11-16T10:59:50.154Z,6.55
2022-11-16T11:02:37.406Z,6.22
2022-11-16T11:05:07.039Z,10.82
2022-11-16T11:07:40.049Z,9.48
2022-11-16T11:10:30.431Z,8.23
2022-11-16T11:13:04.586Z,9.15
2022-11-16T11:15:31.333Z,9.25
2022-11-16T11:18:22.238Z,10.90
2022-11-16T11:20:51.157Z,11.52
2022-11-16T11:23:25.527Z,10.73
2022-11-16T11:25:55.268Z,7.72
2022-11-16T11:28:32.041Z,11.57
2022-11-16T11:31:11.714Z,8.90
2022-11-16T11:33:48.405Z,11.57
2022-11-16T11:36:35.336Z,8.48
2022-11-16T11:39:07.687Z,13.70
2022-11-16T11:41:39.925Z,12.88
2022-11-16T11:44:15.779Z,9.32
2022-11-16T11:50:08.406Z,11.40
2022-11-16T11:52:44.631Z,13.30
2022-11-16T11:57:46.282Z,9.15
2022-11-16T12:00:14.977Z,9.93
2022-11-16T12:03:19.925Z,14.25
2022-11-16T12:05:58.010Z,10.73
2022-11-16T12:08:35.412Z,9.18
2022-11-16T12:11:08.104Z,7.43
2022-11-16T12:14:14.787Z,9.18
2022-11-16T12:16:53.250Z,7.45
2022-11-16T12:20:00.818Z,5.60
2022-11-16T12:22:45.293Z,6.85
2022-11-16T12:25:25.709Z,11.98
2022-11-16T12:28:25.798Z,9.50
2022-11-16T12:31:17.185Z,7.35
2022-11-16T12:33:55.893Z,7.65
2022-11-16T12:36:39.882Z,17.30
2022-11-16T12:39:12.580Z,11.25
2022-11-16T12:41:48.725Z,6.60
2022-11-16T12:44:27.409Z,7.00
2022-11-16T12:47:31.453Z,9.30
2022-11-16T12:50:08.106Z,10.13
2022-11-16T12:53:02.493Z,8.15
2022-11-16T12:55:49.589Z,8.30
2022-11-16T12:58:19.052Z,8.52
2022-11-16T13:00:50.727Z,11.95
2022-11-16T13:03:29.526Z,23.60
2022-11-16T13:06:03.589Z,7.75
2022-11-16T13:08:52.791Z,10.15
2022-11-16T13:11:42.492Z,7.85
2022-11-16T13:14:21.018Z,12.77
2022-11-16T13:16:49.278Z,6.45
2022-11-16T13:19:18.101Z,8.77
2022-11-16T13:22:10.723Z,4.93
2022-11-16T13:24:49.288Z,23.40
2022-11-16T13:27:49.812Z,9.68
2022-11-16T13:30:22.545Z,13.05
2022-11-16T13:33:11.252Z,6.40
2022-11-16T13:35:38.952Z,6.30
2022-11-16T13:38:13.096Z,7.38
2022-11-16T13:40:40.943Z,6.00
2022-11-16T13:43:16.551Z,6.53
2022-11-16T13:45:43.083Z,7.50
2022-11-16T13:48:20.578Z,8.07
2022-11-16T13:50:51.052Z,9.57
2022-11-16T13:54:44.434Z,8.95
2022-11-16T13:57:21.217Z,8.23
2022-11-16T14:00:03.685Z,8.73
2022-11-16T14:02:35.065Z,9.23
2022-11-16T14:05:13.726Z,7.45
2022-11-16T14:07:47.480Z,7.07
2022-11-16T14:10:35.883Z,16.05
2022-11-16T14:13:04.522Z,7.57
2022-11-16T14:15:47.625Z,7.55
2022-11-16T14:18:33.420Z,10.35
2022-11-16T14:24:32.534Z,7.57
2022-11-16T14:27:06.453Z,5.97
2022-11-16T14:30:02.722Z,10.13
2022-11-16T14:32:42.411Z,8.27
2022-11-16T14:35:29.633Z,9.38
2022-11-16T14:42:24.519Z,9.88
2022-11-16T14:45:09.766Z,11.20
2022-11-16T14:47:41.753Z,7.72
2022-11-16T14:50:47.909Z,11.68
2022-11-16T14:53:20.448Z,6.32
2022-11-16T14:55:47.130Z,7.35
2022-11-16T14:58:34.707Z,6.07
2022-11-16T15:01:04.337Z,9.35
2022-11-16T15:03:43.870Z,12.35
2022-11-16T15:06:10.624Z,21.67
2022-11-16T15:08:43.972Z,9.65
2022-11-16T15:11:22.489Z,10.68
2022-11-16T15:14:00.904Z,13.73
2022-11-16T15:16:27.529Z,25.38
2022-11-16T15:19:03.754Z,24.40
2022-11-16T15:26:43.980Z,17.92
2022-11-16T15:29:17.230Z,20.00
2022-11-16T15:31:52.995Z,18.42
2022-11-16T15:34:20.225Z,12.55
2022-11-16T15:36:47.680Z,18.25
2022-11-16T15:39:28.601Z,16.83
2022-11-16T15:42:00.387Z,17.67
2022-11-16T15:44:36.942Z,21.95
2022-11-16T15:47:04.038Z,19.20
2022-11-16T15:49:38.184Z,23.25
2022-11-16T15:52:06.127Z,23.80
2022-11-16T15:54:52.900Z,21.52
2022-11-16T15:59:55.544Z,23.27
2022-11-16T16:02:25.010Z,27.13
2022-11-16T16:04:51.869Z,24.00
2022-11-16T16:07:44.365Z,17.15
2022-11-16T16:10:32.608Z,19.38
2022-11-16T16:13:01.730Z,28.38
2022-11-16T16:15:31.270Z,21.10
2022-11-16T16:17:59.031Z,23.27
2022-11-16T16:20:29.700Z,16.67
2022-11-16T16:23:12.985Z,16.60
2022-11-16T16:25:44.750Z,22.08
2022-11-16T16:28:14.441Z,30.33
2022-11-16T16:30:41.155Z,17.40
2022-11-16T16:33:21.078Z,14.93
2022-11-16T16:35:49.896Z,13.65
2022-11-16T16:38:16.624Z,16.60
2022-11-16T16:40:43.280Z,15.32
2022-11-16T16:43:11.232Z,21.10
2022-11-16T16:45:43.599Z,16.77
2022-11-16T16:48:12.750Z,14.35
2022-11-16T16:50:44.951Z,11.75
2022-11-16T16:53:13.348Z,12.98
2022-11-16T16:55:51.786Z,14.00
2022-11-16T16:58:20.644Z,17.05
2022-11-16T17:00:56.923Z,13.20
2022-11-16T17:03:42.307Z,20.00
2022-11-16T17:06:08.931Z,13.25
2022-11-16T17:08:37.012Z,17.58
2022-11-16T17:11:07.158Z,16.35
2022-11-16T17:13:34.095Z,16.95
2022-11-16T17:16:07.158Z,13.30
2022-11-16T17:18:36.326Z,14.70
2022-11-16T17:21:07.744Z,17.90
2022-11-16T17:23:35.365Z,14.88
2022-11-16T17:26:09.797Z,18.52
2022-11-16T17:28:40.407Z,17.52
2022-11-16T17:31:09.211Z,10.82
2022-11-16T17:33:38.182Z,15.15
2022-11-16T17:36:06.054Z,11.80
2022-11-16T17:38:43.541Z,12.38
2022-11-16T17:41:15.891Z,12.52
2022-11-16T17:43:46.423Z,13.25
2022-11-16T17:46:18.090Z,9.30
2022-11-16T17:48:47.323Z,12.93
2022-11-16T17:51:16.699Z,17.08
2022-11-16T17:53:46.457Z,17.00
2022-11-16T17:56:14.942Z,18.38
2022-11-16T17:58:41.971Z,22.88
2022-11-16T18:01:22.608Z,14.00
2022-11-16T18:04:09.456Z,18.65
2022-11-16T18:06:36.258Z,19.48
2022-11-16T18:09:04.831Z,18.60
2022-11-16T18:11:31.465Z,18.60
2022-11-16T18:14:06.397Z,19.17
2022-11-16T18:16:33.872Z,22.42
2022-11-16T18:19:04.942Z,28.83
2022-11-16T18:22:08.732Z,35.38
2022-11-16T18:24:33.631Z,37.78
2022-11-16T18:27:00.293Z,42.95
2022-11-16T18:29:32.248Z,33.22
2022-11-16T18:32:00.107Z,28.02
2022-11-16T18:34:26.799Z,26.42
2022-11-16T18:36:53.563Z,23.92
2022-11-16T18:39:20.143Z,32.53
2022-11-16T18:41:51.801Z,29.92
2022-11-16T18:44:21.352Z,32.85
2022-11-16T18:46:47.932Z,30.55
2022-11-16T18:49:17.067Z,33.55
2022-11-16T18:51:43.715Z,27.52
2022-11-16T18:54:13.582Z,30.73
2022-11-16T18:59:35.647Z,20.40
2022-11-16T19:02:10.646Z,16.13
2022-11-16T19:04:40.304Z,9.85
2022-11-16T19:07:07.838Z,10.10
2022-11-16T19:09:35.350Z,10.07
2022-11-16T19:12:04.775Z,18.38
2022-11-16T19:14:34.316Z,9.05
2022-11-16T19:17:01.838Z,9.60
2022-11-16T19:19:29.868Z,11.15
2022-11-16T19:21:57.089Z,10.35
2022-11-16T19:24:25.355Z,10.95
2022-11-16T19:26:51.990Z,9.15
2022-11-16T19:29:19.430Z,11.98
2022-11-16T19:32:10.405Z,10.73
2022-11-16T19:34:37.062Z,10.73
2022-11-16T19:43:59.902Z,12.45
2022-11-16T19:46:28.726Z,12.98
2022-11-16T19:48:56.421Z,10.52
2022-11-16T19:51:25.484Z,7.70
2022-11-16T19:53:52.461Z,8.50
2022-11-16T19:56:20.481Z,7.07
2022-11-16T19:58:48.066Z,7.78
2022-11-16T20:01:18.966Z,8.13
2022-11-16T20:03:47.463Z,9.02
2022-11-16T20:06:20.854Z,12.35
2022-11-16T20:08:56.277Z,13.23
2022-11-16T20:11:26.475Z,12.65
2022-11-16T20:13:55.110Z,14.70
2022-11-16T20:16:26.083Z,13.75
2022-11-16T20:18:53.439Z,12.90
2022-11-16T20:21:33.148Z,11.85
2022-11-16T20:24:06.332Z,12.63
2022-11-16T20:26:34.778Z,11.32
2022-11-16T20:29:02.511Z,11.90
2022-11-16T20:31:31.099Z,9.75
2022-11-16T20:34:01.918Z,12.00
2022-11-16T20:36:30.689Z,13.48
2022-11-16T20:38:59.228Z,12.90
2022-11-16T20:41:28.376Z,9.48
2022-11-16T20:43:56.827Z,9.75
2022-11-16T20:46:26.749Z,7.78
2022-11-16T20:48:54.608Z,8.60
2022-11-16T20:51:21.304Z,7.75
2022-11-16T20:53:50.094Z,5.72
2022-11-16T20:56:19.223Z,5.93
2022-11-16T20:58:46.749Z,8.88
2022-11-16T21:01:19.520Z,7.00
2022-11-16T21:03:48.990Z,7.40
2022-11-16T21:06:15.890Z,5.68
2022-11-16T21:08:42.562Z,6.57
2022-11-16T21:11:14.539Z,10.77
2022-11-16T21:13:59.824Z,10.05
2022-11-16T21:16:26.744Z,6.65
2022-11-16T21:18:54.652Z,7.13
2022-11-16T21:21:21.683Z,8.48
2022-11-16T21:23:55.114Z,7.30
2022-11-16T21:26:29.745Z,6.65
2022-11-16T21:28:58.567Z,8.15
2022-11-16T21:31:33.712Z,8.05
2022-11-16T21:34:01.172Z,7.43
2022-11-16T21:36:30.498Z,9.18
2022-11-16T21:38:58.225Z,6.20
2022-11-16T21:41:25.799Z,8.23
2022-11-16T21:43:52.473Z,9.63
2022-11-16T21:46:26.927Z,8.20
2022-11-16T21:48:55.472Z,9.10
2022-11-16T21:51:26.926Z,8.77
2022-11-16T21:53:54.391Z,8.50
2022-11-16T21:56:25.918Z,7.97
2022-11-16T21:58:53.436Z,8.00
2022-11-16T22:01:22.671Z,7.60
2022-11-16T22:04:09.638Z,7.80
2022-11-16T22:06:55.079Z,6.60
2022-11-16T22:09:21.888Z,5.55
2022-11-16T22:11:48.513Z,7.95
2022-11-16T22:14:15.668Z,7.65
2022-11-16T22:16:42.337Z,8.05
2022-11-16T22:19:08.986Z,7.88
2022-11-16T22:21:36.667Z,7.05
2022-11-16T22:24:03.370Z,11.15
2022-11-16T22:26:30.015Z,8.45
2022-11-16T22:28:58.144Z,9.35
2022-11-16T22:31:25.162Z,7.35
2022-11-16T22:33:53.644Z,10.23
2022-11-16T22:36:23.563Z,9.93
2022-11-16T22:38:50.269Z,9.60
2022-11-16T22:41:16.881Z,7.35
2022-11-16T22:43:43.469Z,7.32
2022-11-16T22:46:10.983Z,7.28
2022-11-16T22:48:42.586Z,7.20
2022-11-16T22:51:18.483Z,9.43
2022-11-16T22:53:45.240Z,8.63
2022-11-16T22:56:12.544Z,7.65
2022-11-16T22:58:40.668Z,9.10
2022-11-16T23:01:08.618Z,9.23
2022-11-16T23:03:38.082Z,8.73
2022-11-16T23:06:07.721Z,8.18
2022-11-16T23:08:35.252Z,9.63
2022-11-16T23:11:23.454Z,10.52
2022-11-16T23:14:10.430Z,8.50
2022-11-16T23:16:38.356Z,8.75
2022-11-16T23:19:26.371Z,8.68
2022-11-16T23:22:11.736Z,7.60
2022-11-16T23:24:57.311Z,7.32
2022-11-16T23:27:32.767Z,8.85
2022-11-16T23:30:10.755Z,8.75
2022-11-16T23:32:38.997Z,8.10
2022-11-16T23:35:06.082Z,9.10
2022-11-16T23:37:32.672Z,9.82
2022-11-16T23:40:00.530Z,8.88
2022-11-16T23:42:45.498Z,9.80
2022-11-16T23:45:12.125Z,9.45
2022-11-16T23:47:38.679Z,8.30
2022-11-16T23:50:05.685Z,8.77
2022-11-16T23:52:32.837Z,8.00
2022-11-16T23:55:01.601Z,7.50
2022-11-16T23:57:30.492Z,10.43
2022-11-16T23:59:57.807Z,9.25
